sensor_id;sensor_type;location;lat;lon;timestamp;P1;durP1;ratioP1;P2;durP2;ratioP2
3503;SDS011;1766;53.490;10.174;2022-09-09T00:02:02;51.60;;;20.60;;
3503;SDS011;1766;53.490;10.174;2022-09-09T00:04:15;70.33;;;20.67;;
3503;SDS011;1766;53.490;10.174;2022-09-09T00:06:28;125.73;;;20.60;;
3503;SDS011;1766;53.490;10.174;2022-09-09T00:08:35;105.27;;;21.50;;
3503;SDS011;1766;53.490;10.174;2022-09-09T00:10:48;107.43;;;21.93;;
3503;SDS011;1766;53.490;10.174;2022-09-09T00:13:00;200.53;;;24.40;;
3503;SDS011;1766;53.490;10.174;2022-09-09T00:15:17;411.00;;;28.90;;
3503;SDS011;1766;53.490;10.174;2022-09-09T00:17:26;243.70;;;24.43;;
3503;SDS011;1766;53.490;10.174;2022-09-09T00:19:42;99.57;;;20.87;;
3503;SDS011;1766;53.490;10.174;2022-09-09T00:21:53;61.83;;;20.23;;
3503;SDS011;1766;53.490;10.174;2022-09-09T00:24:08;152.90;;;23.23;;
3503;SDS011;1766;53.490;10.174;2022-09-09T00:26:22;104.27;;;20.93;;
3503;SDS011;1766;53.490;10.174;2022-09-09T00:28:36;132.00;;;21.20;;
3503;SDS011;1766;53.490;10.174;2022-09-09T00:30:42;122.77;;;22.33;;
3503;SDS011;1766;53.490;10.174;2022-09-09T00:32:48;61.40;;;21.20;;
3503;SDS011;1766;53.490;10.174;2022-09-09T00:34:58;36.33;;;19.50;;
3503;SDS011;1766;53.490;10.174;2022-09-09T00:37:05;57.07;;;20.73;;
3503;SDS011;1766;53.490;10.174;2022-09-09T00:39:10;264.43;;;26.07;;
3503;SDS011;1766;53.490;10.174;2022-09-09T00:41:22;97.33;;;20.73;;
3503;SDS011;1766;53.490;10.174;2022-09-09T00:43:38;166.83;;;24.10;;
3503;SDS011;1766;53.490;10.174;2022-09-09T00:45:51;77.13;;;20.77;;
3503;SDS011;1766;53.490;10.174;2022-09-09T00:48:06;65.40;;;20.67;;
3503;SDS011;1766;53.490;10.174;2022-09-09T00:50:28;96.37;;;22.33;;
3503;SDS011;1766;53.490;10.174;2022-09-09T00:52:46;72.13;;;21.20;;
3503;SDS011;1766;53.490;10.174;2022-09-09T00:55:03;61.93;;;21.03;;
3503;SDS011;1766;53.490;10.174;2022-09-09T00:57:14;83.57;;;21.67;;
3503;SDS011;1766;53.490;10.174;2022-09-09T00:59:28;49.97;;;20.23;;
3503;SDS011;1766;53.490;10.174;2022-09-09T01:01:37;38.67;;;20.73;;
3503;SDS011;1766;53.490;10.174;2022-09-09T01:03:42;35.03;;;19.27;;
3503;SDS011;1766;53.490;10.174;2022-09-09T01:05:51;59.70;;;23.43;;
3503;SDS011;1766;53.490;10.174;2022-09-09T01:08:05;39.67;;;20.43;;
3503;SDS011;1766;53.490;10.174;2022-09-09T01:10:21;54.13;;;21.17;;
3503;SDS011;1766;53.490;10.174;2022-09-09T01:12:37;48.20;;;20.00;;
3503;SDS011;1766;53.490;10.174;2022-09-09T01:14:45;40.60;;;20.63;;
3503;SDS011;1766;53.490;10.174;2022-09-09T01:16:52;38.60;;;21.40;;
3503;SDS011;1766;53.490;10.174;2022-09-09T01:18:59;45.07;;;21.43;;
3503;SDS011;1766;53.490;10.174;2022-09-09T01:21:07;34.70;;;20.63;;
3503;SDS011;1766;53.490;10.174;2022-09-09T01:23:26;38.93;;;18.50;;
3503;SDS011;1766;53.490;10.174;2022-09-09T01:28:19;41.30;;;20.07;;
3503;SDS011;1766;53.490;10.174;2022-09-09T01:30:26;33.97;;;19.63;;
3503;SDS011;1766;53.490;10.174;2022-09-09T01:32:38;38.07;;;20.37;;
3503;SDS011;1766;53.490;10.174;2022-09-09T01:34:42;31.93;;;19.77;;
3503;SDS011;1766;53.490;10.174;2022-09-09T01:36:46;38.50;;;20.33;;
3503;SDS011;1766;53.490;10.174;2022-09-09T01:38:52;28.63;;;18.53;;
3503;SDS011;1766;53.490;10.174;2022-09-09T01:40:55;38.30;;;20.17;;
3503;SDS011;1766;53.490;10.174;2022-09-09T01:42:59;52.47;;;20.47;;
3503;SDS011;1766;53.490;10.174;2022-09-09T01:45:02;42.13;;;21.30;;
3503;SDS011;1766;53.490;10.174;2022-09-09T01:47:06;35.70;;;19.17;;
3503;SDS011;1766;53.490;10.174;2022-09-09T01:49:08;44.30;;;20.63;;
3503;SDS011;1766;53.490;10.174;2022-09-09T01:51:12;43.83;;;21.40;;
3503;SDS011;1766;53.490;10.174;2022-09-09T01:53:14;43.30;;;21.17;;
3503;SDS011;1766;53.490;10.174;2022-09-09T01:55:19;49.50;;;22.33;;
3503;SDS011;1766;53.490;10.174;2022-09-09T01:57:31;87.93;;;22.07;;
3503;SDS011;1766;53.490;10.174;2022-09-09T01:59:47;63.13;;;20.50;;
3503;SDS011;1766;53.490;10.174;2022-09-09T02:02:03;50.23;;;22.00;;
3503;SDS011;1766;53.490;10.174;2022-09-09T02:04:14;43.17;;;20.40;;
3503;SDS011;1766;53.490;10.174;2022-09-09T02:06:30;105.53;;;21.57;;
3503;SDS011;1766;53.490;10.174;2022-09-09T02:08:40;67.73;;;20.50;;
3503;SDS011;1766;53.490;10.174;2022-09-09T02:10:47;167.13;;;22.83;;
3503;SDS011;1766;53.490;10.174;2022-09-09T02:13:00;153.40;;;23.20;;
3503;SDS011;1766;53.490;10.174;2022-09-09T02:15:11;93.43;;;20.13;;
3503;SDS011;1766;53.490;10.174;2022-09-09T02:17:22;56.80;;;18.47;;
3503;SDS011;1766;53.490;10.174;2022-09-09T02:19:31;80.10;;;19.97;;
3503;SDS011;1766;53.490;10.174;2022-09-09T02:21:36;71.20;;;20.23;;
3503;SDS011;1766;53.490;10.174;2022-09-09T02:23:39;91.33;;;19.70;;
3503;SDS011;1766;53.490;10.174;2022-09-09T02:25:43;94.20;;;18.97;;
3503;SDS011;1766;53.490;10.174;2022-09-09T02:27:47;66.70;;;17.20;;
3503;SDS011;1766;53.490;10.174;2022-09-09T02:29:51;46.53;;;17.40;;
3503;SDS011;1766;53.490;10.174;2022-09-09T02:31:55;137.07;;;20.43;;
3503;SDS011;1766;53.490;10.174;2022-09-09T02:34:04;60.20;;;17.97;;
3503;SDS011;1766;53.490;10.174;2022-09-09T02:36:08;65.67;;;16.87;;
3503;SDS011;1766;53.490;10.174;2022-09-09T02:38:15;103.27;;;19.03;;
3503;SDS011;1766;53.490;10.174;2022-09-09T02:40:18;24.50;;;14.97;;
3503;SDS011;1766;53.490;10.174;2022-09-09T02:42:21;37.07;;;15.50;;
3503;SDS011;1766;53.490;10.174;2022-09-09T02:44:23;124.60;;;18.47;;
3503;SDS011;1766;53.490;10.174;2022-09-09T02:46:32;51.83;;;17.17;;
3503;SDS011;1766;53.490;10.174;2022-09-09T02:48:52;34.60;;;15.30;;
3503;SDS011;1766;53.490;10.174;2022-09-09T02:51:03;55.33;;;16.70;;
3503;SDS011;1766;53.490;10.174;2022-09-09T02:53:11;127.13;;;18.87;;
3503;SDS011;1766;53.490;10.174;2022-09-09T02:55:22;50.03;;;16.17;;
3503;SDS011;1766;53.490;10.174;2022-09-09T02:57:31;229.23;;;21.50;;
3503;SDS011;1766;53.490;10.174;2022-09-09T02:59:35;35.67;;;15.97;;
3503;SDS011;1766;53.490;10.174;2022-09-09T03:01:37;64.63;;;16.63;;
3503;SDS011;1766;53.490;10.174;2022-09-09T03:03:40;105.70;;;16.80;;
3503;SDS011;1766;53.490;10.174;2022-09-09T03:05:43;41.60;;;15.60;;
3503;SDS011;1766;53.490;10.174;2022-09-09T03:07:46;166.13;;;19.57;;
3503;SDS011;1766;53.490;10.174;2022-09-09T03:09:49;90.70;;;17.47;;
3503;SDS011;1766;53.490;10.174;2022-09-09T03:11:54;33.43;;;16.13;;
3503;SDS011;1766;53.490;10.174;2022-09-09T03:13:56;29.13;;;16.60;;
3503;SDS011;1766;53.490;10.174;2022-09-09T03:15:57;40.53;;;17.20;;
3503;SDS011;1766;53.490;10.174;2022-09-09T03:17:59;44.27;;;16.97;;
3503;SDS011;1766;53.490;10.174;2022-09-09T03:20:13;66.50;;;18.00;;
3503;SDS011;1766;53.490;10.174;2022-09-09T03:22:16;40.30;;;15.77;;
3503;SDS011;1766;53.490;10.174;2022-09-09T03:24:18;47.43;;;17.57;;
3503;SDS011;1766;53.490;10.174;2022-09-09T03:26:20;41.23;;;14.77;;
3503;SDS011;1766;53.490;10.174;2022-09-09T03:28:23;35.70;;;15.37;;
3503;SDS011;1766;53.490;10.174;2022-09-09T03:30:30;99.13;;;18.87;;
3503;SDS011;1766;53.490;10.174;2022-09-09T03:32:32;53.67;;;16.63;;
3503;SDS011;1766;53.490;10.174;2022-09-09T03:34:33;24.53;;;14.47;;
3503;SDS011;1766;53.490;10.174;2022-09-09T03:36:37;40.27;;;17.60;;
3503;SDS011;1766;53.490;10.174;2022-09-09T03:38:40;40.10;;;16.20;;
3503;SDS011;1766;53.490;10.174;2022-09-09T03:40:48;31.50;;;16.73;;
3503;SDS011;1766;53.490;10.174;2022-09-09T03:42:51;51.57;;;16.43;;
3503;SDS011;1766;53.490;10.174;2022-09-09T03:44:53;61.80;;;16.90;;
3503;SDS011;1766;53.490;10.174;2022-09-09T03:46:54;32.00;;;15.03;;
3503;SDS011;1766;53.490;10.174;2022-09-09T03:48:56;54.77;;;17.67;;
3503;SDS011;1766;53.490;10.174;2022-09-09T03:50:58;29.47;;;15.53;;
3503;SDS011;1766;53.490;10.174;2022-09-09T03:53:01;47.97;;;16.17;;
3503;SDS011;1766;53.490;10.174;2022-09-09T03:55:04;27.10;;;16.33;;
3503;SDS011;1766;53.490;10.174;2022-09-09T03:57:08;53.27;;;16.13;;
3503;SDS011;1766;53.490;10.174;2022-09-09T03:59:11;44.17;;;16.13;;
3503;SDS011;1766;53.490;10.174;2022-09-09T04:01:14;31.47;;;16.37;;
3503;SDS011;1766;53.490;10.174;2022-09-09T04:03:17;46.20;;;16.10;;
3503;SDS011;1766;53.490;10.174;2022-09-09T04:05:20;38.30;;;15.30;;
3503;SDS011;1766;53.490;10.174;2022-09-09T04:07:21;64.53;;;17.63;;
3503;SDS011;1766;53.490;10.174;2022-09-09T04:09:23;38.40;;;15.93;;
3503;SDS011;1766;53.490;10.174;2022-09-09T04:11:26;27.43;;;15.93;;
3503;SDS011;1766;53.490;10.174;2022-09-09T04:13:28;28.60;;;16.40;;
3503;SDS011;1766;53.490;10.174;2022-09-09T04:15:30;25.03;;;15.43;;
3503;SDS011;1766;53.490;10.174;2022-09-09T04:17:35;41.03;;;16.30;;
3503;SDS011;1766;53.490;10.174;2022-09-09T04:19:37;77.27;;;18.33;;
3503;SDS011;1766;53.490;10.174;2022-09-09T04:21:39;28.67;;;15.30;;
3503;SDS011;1766;53.490;10.174;2022-09-09T04:23:42;23.13;;;14.53;;
3503;SDS011;1766;53.490;10.174;2022-09-09T04:25:44;26.60;;;15.90;;
3503;SDS011;1766;53.490;10.174;2022-09-09T04:27:48;32.93;;;16.77;;
3503;SDS011;1766;53.490;10.174;2022-09-09T04:29:55;43.77;;;16.80;;
3503;SDS011;1766;53.490;10.174;2022-09-09T04:31:57;21.67;;;15.00;;
3503;SDS011;1766;53.490;10.174;2022-09-09T04:33:59;23.70;;;15.47;;
3503;SDS011;1766;53.490;10.174;2022-09-09T04:36:05;24.90;;;15.17;;
3503;SDS011;1766;53.490;10.174;2022-09-09T04:38:07;24.50;;;15.23;;
3503;SDS011;1766;53.490;10.174;2022-09-09T04:40:09;22.73;;;15.00;;
3503;SDS011;1766;53.490;10.174;2022-09-09T04:44:23;23.20;;;15.40;;
3503;SDS011;1766;53.490;10.174;2022-09-09T04:46:24;23.10;;;15.13;;
3503;SDS011;1766;53.490;10.174;2022-09-09T04:48:26;21.57;;;15.30;;
3503;SDS011;1766;53.490;10.174;2022-09-09T04:50:28;27.90;;;15.50;;
3503;SDS011;1766;53.490;10.174;2022-09-09T04:52:30;24.17;;;15.80;;
3503;SDS011;1766;53.490;10.174;2022-09-09T04:54:31;26.07;;;15.03;;
3503;SDS011;1766;53.490;10.174;2022-09-09T04:56:33;22.37;;;14.67;;
3503;SDS011;1766;53.490;10.174;2022-09-09T04:58:37;21.63;;;14.40;;
3503;SDS011;1766;53.490;10.174;2022-09-09T05:00:40;20.27;;;14.00;;
3503;SDS011;1766;53.490;10.174;2022-09-09T05:02:42;18.83;;;14.20;;
3503;SDS011;1766;53.490;10.174;2022-09-09T05:04:44;21.33;;;13.97;;
3503;SDS011;1766;53.490;10.174;2022-09-09T05:06:46;24.20;;;15.37;;
3503;SDS011;1766;53.490;10.174;2022-09-09T05:08:48;20.60;;;13.60;;
3503;SDS011;1766;53.490;10.174;2022-09-09T05:10:50;20.70;;;14.77;;
3503;SDS011;1766;53.490;10.174;2022-09-09T05:12:52;20.20;;;13.30;;
3503;SDS011;1766;53.490;10.174;2022-09-09T05:14:54;18.33;;;13.60;;
3503;SDS011;1766;53.490;10.174;2022-09-09T05:16:57;18.43;;;13.23;;
3503;SDS011;1766;53.490;10.174;2022-09-09T05:18:59;31.57;;;21.73;;
3503;SDS011;1766;53.490;10.174;2022-09-09T05:21:03;18.97;;;12.53;;
3503;SDS011;1766;53.490;10.174;2022-09-09T05:23:07;18.07;;;12.17;;
3503;SDS011;1766;53.490;10.174;2022-09-09T05:25:11;14.97;;;11.20;;
3503;SDS011;1766;53.490;10.174;2022-09-09T05:27:12;20.33;;;11.37;;
3503;SDS011;1766;53.490;10.174;2022-09-09T05:29:15;16.97;;;12.53;;
3503;SDS011;1766;53.490;10.174;2022-09-09T05:31:19;14.00;;;10.83;;
3503;SDS011;1766;53.490;10.174;2022-09-09T05:33:22;16.50;;;11.50;;
3503;SDS011;1766;53.490;10.174;2022-09-09T05:35:25;15.77;;;11.43;;
3503;SDS011;1766;53.490;10.174;2022-09-09T05:37:28;15.50;;;10.83;;
3503;SDS011;1766;53.490;10.174;2022-09-09T05:39:31;18.00;;;10.97;;
3503;SDS011;1766;53.490;10.174;2022-09-09T05:41:34;16.60;;;11.50;;
3503;SDS011;1766;53.490;10.174;2022-09-09T05:43:36;15.30;;;10.57;;
3503;SDS011;1766;53.490;10.174;2022-09-09T05:45:38;13.87;;;10.50;;
3503;SDS011;1766;53.490;10.174;2022-09-09T05:47:40;16.23;;;11.47;;
3503;SDS011;1766;53.490;10.174;2022-09-09T05:49:43;17.37;;;11.23;;
3503;SDS011;1766;53.490;10.174;2022-09-09T05:51:45;14.73;;;10.77;;
3503;SDS011;1766;53.490;10.174;2022-09-09T05:53:48;16.73;;;11.10;;
3503;SDS011;1766;53.490;10.174;2022-09-09T05:55:57;14.00;;;9.90;;
3503;SDS011;1766;53.490;10.174;2022-09-09T05:58:01;11.73;;;9.93;;
3503;SDS011;1766;53.490;10.174;2022-09-09T06:00:04;18.60;;;13.97;;
3503;SDS011;1766;53.490;10.174;2022-09-09T06:02:07;11.47;;;9.50;;
3503;SDS011;1766;53.490;10.174;2022-09-09T06:04:10;14.50;;;10.27;;
3503;SDS011;1766;53.490;10.174;2022-09-09T06:06:14;11.03;;;9.43;;
3503;SDS011;1766;53.490;10.174;2022-09-09T06:08:18;10.53;;;8.90;;
3503;SDS011;1766;53.490;10.174;2022-09-09T06:10:19;11.10;;;9.87;;
3503;SDS011;1766;53.490;10.174;2022-09-09T06:12:21;12.40;;;9.37;;
3503;SDS011;1766;53.490;10.174;2022-09-09T06:14:23;11.97;;;8.93;;
3503;SDS011;1766;53.490;10.174;2022-09-09T06:16:27;12.27;;;9.37;;
3503;SDS011;1766;53.490;10.174;2022-09-09T06:18:32;13.60;;;10.33;;
3503;SDS011;1766;53.490;10.174;2022-09-09T06:20:34;12.17;;;10.33;;
3503;SDS011;1766;53.490;10.174;2022-09-09T06:22:38;9.77;;;8.17;;
3503;SDS011;1766;53.490;10.174;2022-09-09T06:24:41;8.30;;;7.33;;
3503;SDS011;1766;53.490;10.174;2022-09-09T06:26:44;11.13;;;9.10;;
3503;SDS011;1766;53.490;10.174;2022-09-09T06:28:46;9.50;;;7.30;;
3503;SDS011;1766;53.490;10.174;2022-09-09T06:30:56;9.57;;;6.87;;
3503;SDS011;1766;53.490;10.174;2022-09-09T06:32:59;9.90;;;8.10;;
3503;SDS011;1766;53.490;10.174;2022-09-09T06:35:01;7.93;;;6.97;;
3503;SDS011;1766;53.490;10.174;2022-09-09T06:37:03;12.50;;;7.23;;
3503;SDS011;1766;53.490;10.174;2022-09-09T06:39:07;7.97;;;7.17;;
3503;SDS011;1766;53.490;10.174;2022-09-09T06:41:11;7.33;;;5.93;;
3503;SDS011;1766;53.490;10.174;2022-09-09T06:43:15;8.17;;;6.20;;
3503;SDS011;1766;53.490;10.174;2022-09-09T06:45:17;7.97;;;6.47;;
3503;SDS011;1766;53.490;10.174;2022-09-09T06:47:18;10.10;;;6.67;;
3503;SDS011;1766;53.490;10.174;2022-09-09T06:49:20;7.07;;;6.37;;
3503;SDS011;1766;53.490;10.174;2022-09-09T06:51:23;9.93;;;8.13;;
3503;SDS011;1766;53.490;10.174;2022-09-09T06:53:27;15.20;;;10.53;;
3503;SDS011;1766;53.490;10.174;2022-09-09T06:55:30;6.83;;;6.07;;
3503;SDS011;1766;53.490;10.174;2022-09-09T06:57:32;8.23;;;5.63;;
3503;SDS011;1766;53.490;10.174;2022-09-09T06:59:34;7.67;;;5.60;;
3503;SDS011;1766;53.490;10.174;2022-09-09T07:01:37;11.50;;;6.23;;
3503;SDS011;1766;53.490;10.174;2022-09-09T07:03:40;7.53;;;5.87;;
3503;SDS011;1766;53.490;10.174;2022-09-09T07:05:43;9.97;;;6.03;;
3503;SDS011;1766;53.490;10.174;2022-09-09T07:07:56;7.73;;;4.27;;
3503;SDS011;1766;53.490;10.174;2022-09-09T07:09:58;6.23;;;5.23;;
3503;SDS011;1766;53.490;10.174;2022-09-09T07:12:01;5.77;;;4.73;;
3503;SDS011;1766;53.490;10.174;2022-09-09T07:14:05;6.57;;;4.40;;
3503;SDS011;1766;53.490;10.174;2022-09-09T07:16:09;5.13;;;4.63;;
3503;SDS011;1766;53.490;10.174;2022-09-09T07:18:13;5.83;;;4.80;;
3503;SDS011;1766;53.490;10.174;2022-09-09T07:20:15;4.80;;;4.40;;
3503;SDS011;1766;53.490;10.174;2022-09-09T07:22:17;9.40;;;4.37;;
3503;SDS011;1766;53.490;10.174;2022-09-09T07:24:20;8.83;;;4.10;;
3503;SDS011;1766;53.490;10.174;2022-09-09T07:26:22;4.43;;;4.00;;
3503;SDS011;1766;53.490;10.174;2022-09-09T07:28:27;3.63;;;3.33;;
3503;SDS011;1766;53.490;10.174;2022-09-09T07:30:31;4.93;;;3.93;;
3503;SDS011;1766;53.490;10.174;2022-09-09T07:32:33;6.67;;;4.23;;
3503;SDS011;1766;53.490;10.174;2022-09-09T07:34:34;8.27;;;3.83;;
3503;SDS011;1766;53.490;10.174;2022-09-09T07:36:37;3.30;;;3.03;;
3503;SDS011;1766;53.490;10.174;2022-09-09T07:38:42;9.20;;;4.43;;
3503;SDS011;1766;53.490;10.174;2022-09-09T07:40:46;13.30;;;9.77;;
3503;SDS011;1766;53.490;10.174;2022-09-09T07:42:48;5.27;;;3.60;;
3503;SDS011;1766;53.490;10.174;2022-09-09T07:44:51;4.23;;;3.03;;
3503;SDS011;1766;53.490;10.174;2022-09-09T07:46:54;5.70;;;3.00;;
3503;SDS011;1766;53.490;10.174;2022-09-09T07:48:56;4.27;;;2.60;;
3503;SDS011;1766;53.490;10.174;2022-09-09T07:51:06;4.67;;;2.63;;
3503;SDS011;1766;53.490;10.174;2022-09-09T07:53:10;5.00;;;2.83;;
3503;SDS011;1766;53.490;10.174;2022-09-09T07:55:12;2.77;;;2.40;;
3503;SDS011;1766;53.490;10.174;2022-09-09T07:57:15;4.80;;;2.50;;
3503;SDS011;1766;53.490;10.174;2022-09-09T07:59:16;2.53;;;2.10;;
3503;SDS011;1766;53.490;10.174;2022-09-09T08:01:21;4.73;;;2.50;;
3503;SDS011;1766;53.490;10.174;2022-09-09T08:03:25;2.73;;;2.30;;
3503;SDS011;1766;53.490;10.174;2022-09-09T08:05:27;2.53;;;1.93;;
3503;SDS011;1766;53.490;10.174;2022-09-09T08:07:29;17.10;;;11.90;;
3503;SDS011;1766;53.490;10.174;2022-09-09T08:09:31;4.80;;;3.37;;
3503;SDS011;1766;53.490;10.174;2022-09-09T08:11:33;3.03;;;2.20;;
3503;SDS011;1766;53.490;10.174;2022-09-09T08:13:36;3.30;;;2.57;;
3503;SDS011;1766;53.490;10.174;2022-09-09T08:15:39;5.40;;;2.50;;
3503;SDS011;1766;53.490;10.174;2022-09-09T08:17:44;2.70;;;2.40;;
3503;SDS011;1766;53.490;10.174;2022-09-09T08:19:46;2.97;;;2.00;;
3503;SDS011;1766;53.490;10.174;2022-09-09T08:21:48;3.67;;;2.60;;
3503;SDS011;1766;53.490;10.174;2022-09-09T08:23:50;4.67;;;1.90;;
3503;SDS011;1766;53.490;10.174;2022-09-09T08:25:53;2.30;;;1.73;;
3503;SDS011;1766;53.490;10.174;2022-09-09T08:27:57;2.33;;;2.10;;
3503;SDS011;1766;53.490;10.174;2022-09-09T08:29:58;2.30;;;1.77;;
3503;SDS011;1766;53.490;10.174;2022-09-09T08:32:00;4.57;;;2.27;;
3503;SDS011;1766;53.490;10.174;2022-09-09T08:34:04;3.43;;;2.07;;
3503;SDS011;1766;53.490;10.174;2022-09-09T08:36:08;3.00;;;1.87;;
3503;SDS011;1766;53.490;10.174;2022-09-09T08:38:12;4.23;;;1.90;;
3503;SDS011;1766;53.490;10.174;2022-09-09T08:40:17;5.83;;;2.07;;
3503;SDS011;1766;53.490;10.174;2022-09-09T08:42:31;3.60;;;1.93;;
3503;SDS011;1766;53.490;10.174;2022-09-09T08:44:42;2.23;;;1.57;;
3503;SDS011;1766;53.490;10.174;2022-09-09T08:47:09;2.97;;;1.90;;
3503;SDS011;1766;53.490;10.174;2022-09-09T08:49:24;1.63;;;1.53;;
3503;SDS011;1766;53.490;10.174;2022-09-09T08:51:46;3.90;;;2.10;;
3503;SDS011;1766;53.490;10.174;2022-09-09T08:53:50;4.77;;;2.70;;
3503;SDS011;1766;53.490;10.174;2022-09-09T08:55:53;3.87;;;1.70;;
3503;SDS011;1766;53.490;10.174;2022-09-09T08:58:00;2.37;;;1.77;;
3503;SDS011;1766;53.490;10.174;2022-09-09T09:00:11;2.50;;;1.63;;
3503;SDS011;1766;53.490;10.174;2022-09-09T09:02:15;2.90;;;1.50;;
3503;SDS011;1766;53.490;10.174;2022-09-09T09:04:29;2.83;;;1.60;;
3503;SDS011;1766;53.490;10.174;2022-09-09T09:06:43;4.80;;;1.90;;
3503;SDS011;1766;53.490;10.174;2022-09-09T09:08:57;2.33;;;1.33;;
3503;SDS011;1766;53.490;10.174;2022-09-09T09:11:03;1.83;;;1.70;;
3503;SDS011;1766;53.490;10.174;2022-09-09T09:13:07;2.60;;;2.33;;
3503;SDS011;1766;53.490;10.174;2022-09-09T09:15:16;2.50;;;2.17;;
3503;SDS011;1766;53.490;10.174;2022-09-09T09:17:23;1.90;;;1.70;;
3503;SDS011;1766;53.490;10.174;2022-09-09T09:19:33;3.97;;;1.57;;
3503;SDS011;1766;53.490;10.174;2022-09-09T09:21:39;4.17;;;1.50;;
3503;SDS011;1766;53.490;10.174;2022-09-09T09:23:45;2.87;;;1.20;;
3503;SDS011;1766;53.490;10.174;2022-09-09T09:25:59;2.37;;;1.20;;
3503;SDS011;1766;53.490;10.174;2022-09-09T09:28:02;2.10;;;1.30;;
3503;SDS011;1766;53.490;10.174;2022-09-09T09:30:18;3.97;;;1.53;;
3503;SDS011;1766;53.490;10.174;2022-09-09T09:32:22;1.33;;;1.20;;
3503;SDS011;1766;53.490;10.174;2022-09-09T09:34:28;3.03;;;1.00;;
3503;SDS011;1766;53.490;10.174;2022-09-09T09:36:35;27.80;;;17.27;;
3503;SDS011;1766;53.490;10.174;2022-09-09T09:38:51;5.23;;;1.80;;
3503;SDS011;1766;53.490;10.174;2022-09-09T09:40:57;4.50;;;2.17;;
3503;SDS011;1766;53.490;10.174;2022-09-09T09:43:00;3.97;;;1.40;;
3503;SDS011;1766;53.490;10.174;2022-09-09T09:45:13;2.93;;;1.20;;
3503;SDS011;1766;53.490;10.174;2022-09-09T09:47:24;2.60;;;1.23;;
3503;SDS011;1766;53.490;10.174;2022-09-09T09:49:26;2.30;;;1.10;;
3503;SDS011;1766;53.490;10.174;2022-09-09T09:51:29;3.60;;;1.10;;
3503;SDS011;1766;53.490;10.174;2022-09-09T09:53:34;2.63;;;1.37;;
3503;SDS011;1766;53.490;10.174;2022-09-09T09:55:44;2.23;;;1.40;;
3503;SDS011;1766;53.490;10.174;2022-09-09T09:57:54;2.27;;;1.30;;
3503;SDS011;1766;53.490;10.174;2022-09-09T10:00:04;2.63;;;1.03;;
3503;SDS011;1766;53.490;10.174;2022-09-09T10:02:18;3.70;;;1.50;;
3503;SDS011;1766;53.490;10.174;2022-09-09T10:04:24;1.97;;;1.60;;
3503;SDS011;1766;53.490;10.174;2022-09-09T10:06:30;3.37;;;1.50;;
3503;SDS011;1766;53.490;10.174;2022-09-09T10:08:43;3.23;;;1.33;;
3503;SDS011;1766;53.490;10.174;2022-09-09T10:10:50;1.90;;;1.30;;
3503;SDS011;1766;53.490;10.174;2022-09-09T10:13:04;2.37;;;1.33;;
3503;SDS011;1766;53.490;10.174;2022-09-09T10:15:19;3.87;;;1.57;;
3503;SDS011;1766;53.490;10.174;2022-09-09T10:17:33;4.53;;;1.37;;
3503;SDS011;1766;53.490;10.174;2022-09-09T10:19:50;2.07;;;1.57;;
3503;SDS011;1766;53.490;10.174;2022-09-09T10:22:02;4.43;;;2.10;;
3503;SDS011;1766;53.490;10.174;2022-09-09T10:24:22;3.23;;;1.30;;
3503;SDS011;1766;53.490;10.174;2022-09-09T10:26:46;3.73;;;1.50;;
3503;SDS011;1766;53.490;10.174;2022-09-09T10:29:01;2.80;;;1.47;;
3503;SDS011;1766;53.490;10.174;2022-09-09T10:31:22;6.80;;;3.90;;
3503;SDS011;1766;53.490;10.174;2022-09-09T10:33:33;8.27;;;5.10;;
3503;SDS011;1766;53.490;10.174;2022-09-09T10:35:48;3.73;;;1.40;;
3503;SDS011;1766;53.490;10.174;2022-09-09T10:38:04;9.97;;;5.40;;
3503;SDS011;1766;53.490;10.174;2022-09-09T10:40:22;2.60;;;1.40;;
3503;SDS011;1766;53.490;10.174;2022-09-09T10:42:32;1.37;;;1.20;;
3503;SDS011;1766;53.490;10.174;2022-09-09T10:44:38;2.40;;;1.17;;
3503;SDS011;1766;53.490;10.174;2022-09-09T10:46:58;2.13;;;1.20;;
3503;SDS011;1766;53.490;10.174;2022-09-09T10:49:19;3.65;;;1.15;;
3503;SDS011;1766;53.490;10.174;2022-09-09T10:51:35;2.05;;;1.67;;
3503;SDS011;1766;53.490;10.174;2022-09-09T10:53:46;2.13;;;1.30;;
3503;SDS011;1766;53.490;10.174;2022-09-09T10:56:01;2.10;;;1.10;;
3503;SDS011;1766;53.490;10.174;2022-09-09T10:58:09;4.77;;;1.30;;
3503;SDS011;1766;53.490;10.174;2022-09-09T11:00:17;1.27;;;1.07;;
3503;SDS011;1766;53.490;10.174;2022-09-09T11:02:24;2.17;;;1.10;;
3503;SDS011;1766;53.490;10.174;2022-09-09T11:04:29;6.47;;;1.20;;
3503;SDS011;1766;53.490;10.174;2022-09-09T11:06:36;3.10;;;1.30;;
3503;SDS011;1766;53.490;10.174;2022-09-09T11:08:48;2.00;;;1.03;;
3503;SDS011;1766;53.490;10.174;2022-09-09T11:10:57;3.07;;;0.80;;
3503;SDS011;1766;53.490;10.174;2022-09-09T11:13:04;2.67;;;0.80;;
3503;SDS011;1766;53.490;10.174;2022-09-09T11:15:14;9.63;;;6.00;;
3503;SDS011;1766;53.490;10.174;2022-09-09T11:17:23;7.57;;;4.35;;
3503;SDS011;1766;53.490;10.174;2022-09-09T11:19:30;1.70;;;1.02;;
3503;SDS011;1766;53.490;10.174;2022-09-09T11:21:37;1.23;;;1.20;;
3503;SDS011;1766;53.490;10.174;2022-09-09T11:23:45;3.50;;;1.47;;
3503;SDS011;1766;53.490;10.174;2022-09-09T11:25:53;2.37;;;0.90;;
3503;SDS011;1766;53.490;10.174;2022-09-09T11:28:06;5.15;;;1.00;;
3503;SDS011;1766;53.490;10.174;2022-09-09T11:30:29;2.28;;;0.90;;
3503;SDS011;1766;53.490;10.174;2022-09-09T11:32:47;1.92;;;0.93;;
3503;SDS011;1766;53.490;10.174;2022-09-09T11:35:09;2.60;;;1.50;;
3503;SDS011;1766;53.490;10.174;2022-09-09T11:40:00;1.95;;;0.95;;
3503;SDS011;1766;53.490;10.174;2022-09-09T11:42:16;1.30;;;1.00;;
3503;SDS011;1766;53.490;10.174;2022-09-09T11:44:24;3.20;;;1.50;;
3503;SDS011;1766;53.490;10.174;2022-09-09T11:46:31;2.30;;;0.95;;
3503;SDS011;1766;53.490;10.174;2022-09-09T11:48:38;3.85;;;1.17;;
3503;SDS011;1766;53.490;10.174;2022-09-09T11:50:43;29.17;;;25.85;;
3503;SDS011;1766;53.490;10.174;2022-09-09T11:52:46;5.60;;;4.30;;
3503;SDS011;1766;53.490;10.174;2022-09-09T11:54:49;13.50;;;9.70;;
3503;SDS011;1766;53.490;10.174;2022-09-09T11:56:51;9.70;;;6.53;;
3503;SDS011;1766;53.490;10.174;2022-09-09T11:58:54;3.13;;;2.40;;
3503;SDS011;1766;53.490;10.174;2022-09-09T12:01:02;2.50;;;1.23;;
3503;SDS011;1766;53.490;10.174;2022-09-09T12:05:37;4.75;;;3.75;;
3503;SDS011;1766;53.490;10.174;2022-09-09T12:07:46;6.90;;;1.77;;
3503;SDS011;1766;53.490;10.174;2022-09-09T12:09:55;6.25;;;1.83;;
3503;SDS011;1766;53.490;10.174;2022-09-09T12:14:34;8.48;;;3.03;;
3503;SDS011;1766;53.490;10.174;2022-09-09T12:16:39;7.63;;;3.57;;
3503;SDS011;1766;53.490;10.174;2022-09-09T12:18:42;4.25;;;1.42;;
3503;SDS011;1766;53.490;10.174;2022-09-09T12:20:50;2.33;;;2.23;;
3503;SDS011;1766;53.490;10.174;2022-09-09T12:25:28;4.07;;;1.93;;
3503;SDS011;1766;53.490;10.174;2022-09-09T12:27:36;2.40;;;1.70;;
3503;SDS011;1766;53.490;10.174;2022-09-09T12:29:47;5.80;;;3.23;;
3503;SDS011;1766;53.490;10.174;2022-09-09T12:32:00;4.17;;;1.80;;
3503;SDS011;1766;53.490;10.174;2022-09-09T12:34:09;3.40;;;1.88;;
3503;SDS011;1766;53.490;10.174;2022-09-09T12:36:15;2.65;;;1.80;;
3503;SDS011;1766;53.490;10.174;2022-09-09T12:38:22;4.32;;;1.38;;
3503;SDS011;1766;53.490;10.174;2022-09-09T12:40:31;1.58;;;1.48;;
3503;SDS011;1766;53.490;10.174;2022-09-09T12:42:39;4.40;;;2.42;;
3503;SDS011;1766;53.490;10.174;2022-09-09T12:44:49;2.92;;;1.42;;
3503;SDS011;1766;53.490;10.174;2022-09-09T12:46:53;4.93;;;2.17;;
3503;SDS011;1766;53.490;10.174;2022-09-09T12:48:58;2.80;;;1.70;;
3503;SDS011;1766;53.490;10.174;2022-09-09T12:51:00;2.42;;;2.22;;
3503;SDS011;1766;53.490;10.174;2022-09-09T12:53:03;4.45;;;2.08;;
3503;SDS011;1766;53.490;10.174;2022-09-09T12:55:15;6.15;;;1.77;;
3503;SDS011;1766;53.490;10.174;2022-09-09T12:57:22;2.57;;;2.30;;
3503;SDS011;1766;53.490;10.174;2022-09-09T12:59:26;4.72;;;1.63;;